createdAt,value
2023-11-13T00:00:14.150Z,14.35
2023-11-13T00:02:42.684Z,14.48
2023-11-13T00:05:10.642Z,15.15
2023-11-13T00:07:38.346Z,15.60
2023-11-13T00:10:09.621Z,15.32
2023-11-13T00:12:37.865Z,14.77
2023-11-13T00:15:08.160Z,14.18
2023-11-13T00:17:36.011Z,15.88
2023-11-13T00:20:06.987Z,14.65
2023-11-13T00:22:35.411Z,15.23
2023-11-13T00:25:03.214Z,15.35
2023-11-13T00:27:30.973Z,15.70
2023-11-13T00:29:58.950Z,16.77
2023-11-13T00:32:28.189Z,15.80
2023-11-13T00:34:56.257Z,17.42
2023-11-13T00:37:24.404Z,17.17
2023-11-13T00:39:52.185Z,17.63
2023-11-13T00:42:20.834Z,18.15
2023-11-13T00:44:49.284Z,16.98
2023-11-13T00:47:17.018Z,15.77
2023-11-13T00:49:46.996Z,15.57
2023-11-13T00:52:15.087Z,16.30
2023-11-13T00:54:43.904Z,16.75
2023-11-13T00:57:11.600Z,14.73
2023-11-13T00:59:39.374Z,15.88
2023-11-13T01:02:07.231Z,17.05
2023-11-13T01:04:35.020Z,16.98
2023-11-13T01:07:04.393Z,18.38
2023-11-13T01:09:32.593Z,18.42
2023-11-13T01:12:00.596Z,18.77
2023-11-13T01:14:28.532Z,19.67
2023-11-13T01:16:58.200Z,19.13
2023-11-13T01:19:26.176Z,18.92
2023-11-13T01:21:55.522Z,20.85
2023-11-13T01:24:24.730Z,18.33
2023-11-13T01:26:54.193Z,18.77
2023-11-13T01:29:22.177Z,19.23
2023-11-13T01:31:50.352Z,18.88
2023-11-13T01:34:18.357Z,18.98
2023-11-13T01:36:46.348Z,18.58
2023-11-13T01:39:14.829Z,18.98
2023-11-13T01:41:45.043Z,19.42
2023-11-13T01:44:12.947Z,19.65
2023-11-13T01:46:40.793Z,19.70
2023-11-13T01:49:08.757Z,19.60
2023-11-13T01:51:37.162Z,18.67
2023-11-13T01:54:07.171Z,19.65
2023-11-13T01:56:36.094Z,19.25
2023-11-13T01:59:05.824Z,19.55
2023-11-13T02:01:34.033Z,19.67
2023-11-13T02:04:02.032Z,18.40
2023-11-13T02:06:29.845Z,19.33
2023-11-13T02:08:57.657Z,18.40
2023-11-13T02:11:27.521Z,18.05
2023-11-13T02:13:55.855Z,18.55
2023-11-13T02:16:26.150Z,18.13
2023-11-13T02:18:54.709Z,17.38
2023-11-13T02:21:22.577Z,17.70
2023-11-13T02:23:53.982Z,17.95
2023-11-13T02:26:23.834Z,22.45
2023-11-13T02:28:51.648Z,24.85
2023-11-13T02:31:19.749Z,18.80
2023-11-13T02:33:47.582Z,18.50
2023-11-13T02:36:15.352Z,17.55
2023-11-13T02:38:43.130Z,17.35
2023-11-13T02:41:12.847Z,17.77
2023-11-13T02:43:41.160Z,17.88
2023-11-13T02:46:09.044Z,17.55
2023-11-13T02:48:36.822Z,18.20
2023-11-13T02:51:05.065Z,17.48
2023-11-13T02:53:32.803Z,17.90
2023-11-13T02:56:01.079Z,17.02
2023-11-13T02:58:30.279Z,17.77
2023-11-13T03:01:00.157Z,17.52
2023-11-13T03:03:28.349Z,17.75
2023-11-13T03:05:56.555Z,17.40
2023-11-13T03:08:24.733Z,18.13
2023-11-13T03:10:52.971Z,18.60
2023-11-13T03:13:20.790Z,18.45
2023-11-13T03:15:51.009Z,17.80
2023-11-13T03:18:19.412Z,16.60
2023-11-13T03:20:47.431Z,17.77
2023-11-13T03:23:15.651Z,18.10
2023-11-13T03:25:43.449Z,17.58
2023-11-13T03:28:11.363Z,16.95
2023-11-13T03:30:39.872Z,17.88
2023-11-13T03:33:09.495Z,19.05
2023-11-13T03:35:38.819Z,18.13
2023-11-13T03:38:06.567Z,18.35
2023-11-13T03:40:34.326Z,16.40
2023-11-13T03:43:02.716Z,17.83
2023-11-13T03:45:30.457Z,16.75
2023-11-13T03:47:58.578Z,16.50
2023-11-13T03:50:27.918Z,15.60
2023-11-13T03:52:56.082Z,14.65
2023-11-13T03:55:24.068Z,14.90
2023-11-13T03:57:52.855Z,15.02
2023-11-13T04:00:21.328Z,13.95
2023-11-13T04:02:50.270Z,13.50
2023-11-13T04:05:18.870Z,13.10
2023-11-13T04:07:48.137Z,13.48
2023-11-13T04:10:17.281Z,12.43
2023-11-13T04:12:45.619Z,12.25
2023-11-13T04:15:14.886Z,12.18
2023-11-13T04:17:43.145Z,12.25
2023-11-13T04:20:14.193Z,12.82
2023-11-13T04:22:42.477Z,12.35
2023-11-13T04:25:13.204Z,12.80
2023-11-13T04:27:42.335Z,12.95
2023-11-13T04:30:10.951Z,11.75
2023-11-13T04:32:38.820Z,12.07
2023-11-13T04:35:07.978Z,12.38
2023-11-13T04:37:35.961Z,12.38
2023-11-13T04:40:06.185Z,11.75
2023-11-13T04:42:36.582Z,12.57
2023-11-13T04:45:05.174Z,11.85
2023-11-13T04:47:33.522Z,12.32
2023-11-13T04:50:01.794Z,12.40
2023-11-13T04:52:30.034Z,12.65
2023-11-13T04:54:57.811Z,13.15
2023-11-13T04:57:25.864Z,12.27
2023-11-13T04:59:55.147Z,13.13
2023-11-13T05:02:23.852Z,13.95
2023-11-13T05:04:51.644Z,13.05
2023-11-13T05:07:19.841Z,13.18
2023-11-13T05:09:48.719Z,13.23
2023-11-13T05:12:17.241Z,13.35
2023-11-13T05:14:45.001Z,12.93
2023-11-13T05:17:14.413Z,12.88
2023-11-13T05:19:42.526Z,12.93
2023-11-13T05:22:10.922Z,14.10
2023-11-13T05:24:39.979Z,17.33
2023-11-13T05:27:07.729Z,13.38
2023-11-13T05:29:35.535Z,13.90
2023-11-13T05:32:03.502Z,13.70
2023-11-13T05:34:33.259Z,13.95
2023-11-13T05:37:01.239Z,13.40
2023-11-13T05:39:29.050Z,13.57
2023-11-13T05:41:56.986Z,13.55
2023-11-13T05:44:24.753Z,12.65
2023-11-13T05:46:52.502Z,13.57
2023-11-13T05:49:20.438Z,12.25
2023-11-13T05:51:50.805Z,12.88
2023-11-13T05:54:19.441Z,12.35
2023-11-13T05:56:47.271Z,13.20
2023-11-13T05:59:16.155Z,12.52
2023-11-13T06:01:44.279Z,12.02
2023-11-13T06:04:12.265Z,12.68
2023-11-13T06:06:39.983Z,12.70
2023-11-13T06:09:13.051Z,12.85
2023-11-13T06:11:41.184Z,13.27
2023-11-13T06:14:09.119Z,12.57
2023-11-13T06:16:37.462Z,11.80
2023-11-13T06:19:08.602Z,11.55
2023-11-13T06:21:36.628Z,13.00
2023-11-13T06:24:04.834Z,12.13
2023-11-13T06:26:34.113Z,12.32
2023-11-13T06:29:02.754Z,11.88
2023-11-13T06:31:30.539Z,11.93
2023-11-13T06:33:58.770Z,12.40
2023-11-13T06:36:26.606Z,11.70
2023-11-13T06:38:54.388Z,11.85
2023-11-13T06:41:22.337Z,10.60
2023-11-13T06:43:54.929Z,11.15
2023-11-13T06:46:23.167Z,10.90
2023-11-13T06:48:51.453Z,11.05
2023-11-13T06:51:20.688Z,10.75
2023-11-13T06:53:48.558Z,10.82
2023-11-13T06:56:16.526Z,10.32
2023-11-13T06:58:44.444Z,10.18
2023-11-13T07:01:15.209Z,11.75
2023-11-13T07:03:44.557Z,9.90
2023-11-13T07:06:13.179Z,10.65
2023-11-13T07:08:41.718Z,9.90
2023-11-13T07:11:10.175Z,9.82
2023-11-13T07:13:39.603Z,9.48
2023-11-13T07:16:10.470Z,9.98
2023-11-13T07:18:40.256Z,9.07
2023-11-13T07:21:08.435Z,9.25
2023-11-13T07:23:38.138Z,9.15
2023-11-13T07:26:06.470Z,9.18
2023-11-13T07:28:34.606Z,9.15
2023-11-13T07:31:02.814Z,9.18
2023-11-13T07:33:30.506Z,9.40
2023-11-13T07:36:00.710Z,8.65
2023-11-13T07:38:28.463Z,8.73
2023-11-13T07:40:56.405Z,8.43
2023-11-13T07:43:24.306Z,8.30
2023-11-13T07:45:54.021Z,7.80
2023-11-13T07:48:22.125Z,7.80
2023-11-13T07:50:57.659Z,8.88
2023-11-13T07:53:28.863Z,9.10
2023-11-13T07:55:56.773Z,8.60
2023-11-13T07:58:27.636Z,8.15
2023-11-13T08:00:56.261Z,9.10
2023-11-13T08:03:25.163Z,8.48
2023-11-13T08:05:53.305Z,7.53
2023-11-13T08:08:21.091Z,7.90
2023-11-13T08:10:52.936Z,10.32
2023-11-13T08:13:22.326Z,8.45
2023-11-13T08:15:51.944Z,8.32
2023-11-13T08:18:20.076Z,8.07
2023-11-13T08:20:48.774Z,7.30
2023-11-13T08:23:17.270Z,7.32
2023-11-13T08:25:46.110Z,7.97
2023-11-13T08:28:16.232Z,7.18
2023-11-13T08:30:45.710Z,7.43
2023-11-13T08:33:14.194Z,7.90
2023-11-13T08:35:42.150Z,7.10
2023-11-13T08:38:12.491Z,8.57
2023-11-13T08:40:40.552Z,7.95
2023-11-13T08:43:12.256Z,7.13
2023-11-13T08:45:54.407Z,7.07
2023-11-13T08:48:28.586Z,7.13
2023-11-13T08:51:00.877Z,7.30
2023-11-13T08:53:29.615Z,6.93
2023-11-13T08:55:57.812Z,7.95
2023-11-13T08:58:25.860Z,7.78
2023-11-13T09:00:55.237Z,7.85
2023-11-13T09:03:23.239Z,9.52
2023-11-13T09:05:51.414Z,7.68
2023-11-13T09:08:19.158Z,8.82
2023-11-13T09:10:48.099Z,8.90
2023-11-13T09:13:15.782Z,7.95
2023-11-13T09:15:43.581Z,8.10
2023-11-13T09:18:13.731Z,7.15
2023-11-13T09:20:43.277Z,7.55
2023-11-13T09:23:12.477Z,7.57
2023-11-13T09:25:40.738Z,6.82
2023-11-13T09:28:09.063Z,7.53
2023-11-13T09:30:37.266Z,6.68
2023-11-13T09:33:06.504Z,7.28
2023-11-13T09:35:37.564Z,6.70
2023-11-13T09:38:05.831Z,6.25
2023-11-13T09:40:36.014Z,6.13
2023-11-13T09:43:09.100Z,6.55
2023-11-13T09:45:38.393Z,5.07
2023-11-13T09:48:09.162Z,5.38
2023-11-13T09:50:42.074Z,5.10
2023-11-13T09:53:10.652Z,4.78
2023-11-13T09:55:42.714Z,4.75
2023-11-13T09:58:13.592Z,4.55
2023-11-13T10:00:42.791Z,3.85
2023-11-13T10:03:11.214Z,4.07
2023-11-13T10:05:42.781Z,4.13
2023-11-13T10:08:10.945Z,3.83
2023-11-13T10:10:41.094Z,3.88
2023-11-13T10:13:13.276Z,4.47
2023-11-13T10:15:43.712Z,4.25
2023-11-13T10:18:13.446Z,4.28
2023-11-13T10:20:44.817Z,3.83
2023-11-13T10:23:14.432Z,3.88
2023-11-13T10:25:45.547Z,3.88
2023-11-13T10:28:14.595Z,3.90
2023-11-13T10:30:57.499Z,4.20
2023-11-13T10:33:26.286Z,4.05
2023-11-13T10:36:05.750Z,4.40
2023-11-13T10:38:44.926Z,4.50
2023-11-13T10:41:13.864Z,4.40
2023-11-13T10:43:42.587Z,4.88
2023-11-13T10:46:10.617Z,5.20
2023-11-13T10:48:41.914Z,4.60
2023-11-13T10:51:14.466Z,5.57
2023-11-13T10:53:44.283Z,5.05
2023-11-13T10:56:12.597Z,5.40
2023-11-13T10:58:40.733Z,5.30
2023-11-13T11:01:11.926Z,5.47
2023-11-13T11:03:41.265Z,5.80
2023-11-13T11:06:16.031Z,5.97
2023-11-13T11:08:45.654Z,7.53
2023-11-13T11:11:14.734Z,5.82
2023-11-13T11:13:46.997Z,6.45
2023-11-13T11:16:43.243Z,5.70
2023-11-13T11:19:22.697Z,5.65
2023-11-13T11:22:01.500Z,5.68
2023-11-13T11:24:44.220Z,5.07
2023-11-13T11:27:12.098Z,5.80
2023-11-13T11:29:42.189Z,5.50
2023-11-13T11:32:20.717Z,5.50
2023-11-13T11:34:53.587Z,5.68
2023-11-13T11:37:22.917Z,5.18
2023-11-13T11:39:52.973Z,5.00
2023-11-13T11:42:22.861Z,5.18
2023-11-13T11:45:03.174Z,5.10
2023-11-13T11:47:31.550Z,5.13
2023-11-13T11:50:01.090Z,4.50
2023-11-13T11:52:52.937Z,4.90
2023-11-13T11:55:22.777Z,4.68
2023-11-13T11:57:51.666Z,4.53
2023-11-13T12:00:21.898Z,5.18
2023-11-13T12:02:53.087Z,5.00
2023-11-13T12:05:21.936Z,5.22
2023-11-13T12:07:53.586Z,4.47
2023-11-13T12:10:22.331Z,5.30
2023-11-13T12:12:52.007Z,4.82
2023-11-13T12:15:20.368Z,5.03
2023-11-13T12:17:49.521Z,5.53
2023-11-13T12:20:21.692Z,5.03
2023-11-13T12:22:52.790Z,4.93
2023-11-13T12:25:21.071Z,4.47
2023-11-13T12:27:50.169Z,4.43
2023-11-13T12:30:20.616Z,4.43
2023-11-13T12:32:49.290Z,4.45
2023-11-13T12:35:18.806Z,4.10
2023-11-13T12:37:47.945Z,3.80
2023-11-13T12:40:21.065Z,3.60
2023-11-13T12:42:49.496Z,3.53
2023-11-13T12:45:19.620Z,4.20
2023-11-13T12:47:49.180Z,3.63
2023-11-13T12:50:18.703Z,3.70
2023-11-13T12:52:49.174Z,3.90
2023-11-13T12:55:21.265Z,3.33
2023-11-13T12:57:50.174Z,3.55
2023-11-13T13:00:21.046Z,3.60
2023-11-13T13:02:51.225Z,3.05
2023-11-13T13:07:51.273Z,3.78
2023-11-13T13:10:23.092Z,3.95
2023-11-13T13:12:51.845Z,3.83
2023-11-13T13:15:21.844Z,3.90
2023-11-13T13:17:50.907Z,4.00
2023-11-13T13:20:24.922Z,4.25
2023-11-13T13:22:54.484Z,3.67
2023-11-13T13:25:27.242Z,4.30
2023-11-13T13:27:55.841Z,4.35
2023-11-13T13:30:23.793Z,4.30
2023-11-13T13:32:52.485Z,4.57
2023-11-13T13:35:21.540Z,4.47
2023-11-13T13:37:49.529Z,4.57
2023-11-13T13:40:18.523Z,4.65
2023-11-13T13:42:48.964Z,4.50
2023-11-13T13:45:17.854Z,3.83
2023-11-13T13:47:46.065Z,3.38
2023-11-13T13:50:20.520Z,4.05
2023-11-13T13:52:52.670Z,3.30
2023-11-13T13:55:22.791Z,3.40
2023-11-13T13:57:52.847Z,2.83
2023-11-13T14:03:01.287Z,3.53
2023-11-13T14:05:30.007Z,3.25
2023-11-13T14:07:58.574Z,1.40
2023-11-13T14:10:28.259Z,1.10
2023-11-13T14:12:57.611Z,1.15
2023-11-13T14:15:27.131Z,0.88
2023-11-13T14:17:57.055Z,1.00
2023-11-13T14:20:26.014Z,1.00
2023-11-13T14:22:56.817Z,0.90
2023-11-13T14:25:28.045Z,0.65
2023-11-13T14:27:58.813Z,0.77
2023-11-13T14:30:30.365Z,0.70
2023-11-13T14:33:00.436Z,0.93
2023-11-13T14:35:29.167Z,0.50
2023-11-13T14:37:57.326Z,0.60
2023-11-13T14:40:27.229Z,0.57
2023-11-13T14:42:55.505Z,0.55
2023-11-13T14:45:25.931Z,0.63
2023-11-13T14:47:54.269Z,0.80
2023-11-13T14:50:24.736Z,0.45
2023-11-13T14:52:54.467Z,0.55
2023-11-13T14:55:24.053Z,0.60
2023-11-13T14:57:53.643Z,0.60
2023-11-13T15:00:24.743Z,0.50
2023-11-13T15:02:54.715Z,0.50
2023-11-13T15:05:23.479Z,0.40
2023-11-13T15:07:51.978Z,0.60
2023-11-13T15:10:20.609Z,0.40
2023-11-13T15:12:49.277Z,0.50
2023-11-13T15:15:19.506Z,0.60
2023-11-13T15:17:50.813Z,0.70
2023-11-13T15:20:20.252Z,0.75
2023-11-13T15:25:21.530Z,1.50
2023-11-13T15:27:50.312Z,1.65
2023-11-13T15:30:21.657Z,1.77
2023-11-13T15:32:51.235Z,1.80
2023-11-13T15:35:20.605Z,1.83
2023-11-13T15:37:48.970Z,1.88
2023-11-13T15:40:17.771Z,2.63
2023-11-13T15:42:46.136Z,2.20
2023-11-13T15:45:14.124Z,1.73
2023-11-13T15:47:42.570Z,1.40
2023-11-13T15:50:17.080Z,1.77
2023-11-13T15:52:45.357Z,1.70
2023-11-13T15:55:15.624Z,1.50
2023-11-13T15:57:45.256Z,2.05
2023-11-13T16:00:14.579Z,1.38
2023-11-13T16:02:42.695Z,1.20
2023-11-13T16:05:13.833Z,1.20
2023-11-13T16:07:41.822Z,1.00
2023-11-13T16:10:11.317Z,1.52
2023-11-13T16:12:41.921Z,1.30
2023-11-13T16:15:12.263Z,2.00
2023-11-13T16:17:40.954Z,1.52
2023-11-13T16:20:11.737Z,1.40
2023-11-13T16:22:44.161Z,1.40
2023-11-13T16:25:12.368Z,1.20
2023-11-13T16:27:40.119Z,1.50
2023-11-13T16:30:11.087Z,1.48
2023-11-13T16:32:39.874Z,1.63
2023-11-13T16:35:09.955Z,1.80
2023-11-13T16:37:38.760Z,1.80
2023-11-13T16:40:10.502Z,1.90
2023-11-13T16:42:40.750Z,1.58
2023-11-13T16:45:13.826Z,1.70
2023-11-13T16:47:43.983Z,1.52
2023-11-13T16:50:14.452Z,1.50
2023-11-13T16:52:42.658Z,1.65
2023-11-13T16:55:12.384Z,1.60
2023-11-13T16:57:40.118Z,2.13
2023-11-13T17:00:11.110Z,1.90
2023-11-13T17:02:41.776Z,2.08
2023-11-13T17:05:10.188Z,1.67
2023-11-13T17:07:38.228Z,1.67
2023-11-13T17:10:06.864Z,1.92
2023-11-13T17:12:36.149Z,2.15
2023-11-13T17:15:04.221Z,2.15
2023-11-13T17:17:32.095Z,1.60
2023-11-13T17:20:00.697Z,1.60
2023-11-13T17:22:30.878Z,1.83
2023-11-13T17:24:58.773Z,1.67
2023-11-13T17:27:27.070Z,1.85
2023-11-13T17:29:56.670Z,1.60
2023-11-13T17:32:27.769Z,0.40
2023-11-13T17:34:57.260Z,0.50
2023-11-13T17:37:25.104Z,0.40
2023-11-13T17:39:52.963Z,0.77
2023-11-13T17:42:22.320Z,0.40
2023-11-13T17:44:50.339Z,0.20
2023-11-13T17:47:21.322Z,0.30
2023-11-13T17:49:49.427Z,0.38
2023-11-13T17:52:19.096Z,0.40
2023-11-13T17:54:47.657Z,0.45
2023-11-13T17:57:15.849Z,4.63
2023-11-13T17:59:44.029Z,18.80
2023-11-13T18:02:12.340Z,1.02
2023-11-13T18:04:41.645Z,0.40
2023-11-13T18:07:09.514Z,0.40
2023-11-13T18:09:37.862Z,0.45
2023-11-13T18:12:09.608Z,0.25
2023-11-13T18:14:37.659Z,0.35
2023-11-13T18:17:06.051Z,0.40
2023-11-13T18:19:33.937Z,0.20
2023-11-13T18:22:02.947Z,0.32
2023-11-13T18:24:31.091Z,0.30
2023-11-13T18:26:59.272Z,0.40
2023-11-13T18:29:27.179Z,0.30
2023-11-13T18:31:56.192Z,0.40
2023-11-13T18:34:24.625Z,0.45
2023-11-13T18:36:52.512Z,0.40
2023-11-13T18:39:24.074Z,0.60
2023-11-13T18:41:52.566Z,0.43
2023-11-13T18:44:21.655Z,0.50
2023-11-13T18:46:51.207Z,0.40
2023-11-13T18:49:20.527Z,0.50
2023-11-13T18:51:49.366Z,0.57
2023-11-13T18:54:17.740Z,0.50
2023-11-13T18:56:48.991Z,0.50
2023-11-13T18:59:18.971Z,0.45
2023-11-13T19:01:47.052Z,0.68
2023-11-13T19:04:15.539Z,0.68
2023-11-13T19:06:44.015Z,0.80
2023-11-13T19:09:13.979Z,0.70
2023-11-13T19:11:42.351Z,0.30
2023-11-13T19:14:16.573Z,0.73
2023-11-13T19:16:45.936Z,0.90
2023-11-13T19:19:14.815Z,0.52
2023-11-13T19:21:42.651Z,1.45
2023-11-13T19:24:10.703Z,0.93
2023-11-13T19:26:40.773Z,0.75
2023-11-13T19:29:10.927Z,0.68
2023-11-13T19:31:40.201Z,4.13
2023-11-13T19:34:09.156Z,2.17
2023-11-13T19:36:37.214Z,1.20
2023-11-13T19:39:05.409Z,0.90
2023-11-13T19:41:33.446Z,1.50
2023-11-13T19:44:04.797Z,1.25
2023-11-13T19:46:33.184Z,1.20
2023-11-13T19:49:05.515Z,1.95
2023-11-13T19:51:33.990Z,1.17
2023-11-13T19:54:02.025Z,1.65
2023-11-13T19:56:30.462Z,1.55
2023-11-13T19:58:58.425Z,1.30
2023-11-13T20:01:26.440Z,1.20
2023-11-13T20:03:55.257Z,1.63
2023-11-13T20:06:25.963Z,1.25
2023-11-13T20:08:55.285Z,1.15
2023-11-13T20:11:23.654Z,1.42
2023-11-13T20:13:51.548Z,1.00
2023-11-13T20:16:19.929Z,0.90
2023-11-13T20:18:48.751Z,1.05
2023-11-13T20:21:17.008Z,1.33
2023-11-13T20:23:46.125Z,1.17
2023-11-13T20:26:14.004Z,1.45
2023-11-13T20:28:42.070Z,1.00
2023-11-13T20:31:10.391Z,1.20
2023-11-13T20:33:39.181Z,1.30
2023-11-13T20:36:07.989Z,1.38
2023-11-13T20:38:36.197Z,1.30
2023-11-13T20:41:05.895Z,1.35
2023-11-13T20:43:34.049Z,0.95
2023-11-13T20:46:04.045Z,6.07
2023-11-13T20:48:31.928Z,1.42
2023-11-13T20:51:00.212Z,1.50
2023-11-13T20:53:28.608Z,1.40
2023-11-13T20:55:56.538Z,1.58
2023-11-13T20:58:26.136Z,1.77
2023-11-13T21:00:54.893Z,1.80
2023-11-13T21:03:23.232Z,1.60
2023-11-13T21:06:02.359Z,3.60
2023-11-13T21:08:35.577Z,3.03
2023-11-13T21:11:06.745Z,1.85
2023-11-13T21:13:36.102Z,2.28
2023-11-13T21:16:03.976Z,1.83
2023-11-13T21:18:32.635Z,2.03
2023-11-13T21:21:01.153Z,1.98
2023-11-13T21:23:29.890Z,1.88
2023-11-13T21:26:00.217Z,2.08
2023-11-13T21:28:28.659Z,2.15
2023-11-13T21:30:57.935Z,1.98
2023-11-13T21:33:26.440Z,1.90
2023-11-13T21:35:54.892Z,2.58
2023-11-13T21:38:23.130Z,2.00
2023-11-13T21:40:51.322Z,1.85
2023-11-13T21:43:21.731Z,2.10
2023-11-13T21:45:51.616Z,2.33
2023-11-13T21:48:20.847Z,2.40
2023-11-13T21:50:48.682Z,1.60
2023-11-13T21:53:18.556Z,2.03
2023-11-13T21:55:46.431Z,2.08
2023-11-13T21:58:14.337Z,1.83
2023-11-13T22:00:43.560Z,2.15
2023-11-13T22:03:12.599Z,2.40
2023-11-13T22:05:44.289Z,2.50
2023-11-13T22:08:12.288Z,2.45
2023-11-13T22:10:40.740Z,2.45
2023-11-13T22:13:08.988Z,1.85
2023-11-13T22:15:37.953Z,2.85
2023-11-13T22:18:09.553Z,3.30
2023-11-13T22:20:37.866Z,4.97
2023-11-13T22:23:09.232Z,2.33
2023-11-13T22:25:37.681Z,2.08
2023-11-13T22:28:05.648Z,2.10
2023-11-13T22:30:34.222Z,2.60
2023-11-13T22:33:02.495Z,2.83
2023-11-13T22:35:30.939Z,2.35
2023-11-13T22:37:58.777Z,2.30
2023-11-13T22:40:28.156Z,2.38
2023-11-13T22:42:55.957Z,2.33
2023-11-13T22:45:24.726Z,2.55
2023-11-13T22:47:52.702Z,2.42
2023-11-13T22:50:20.437Z,2.50
2023-11-13T22:52:48.515Z,2.88
2023-11-13T22:55:16.532Z,4.53
2023-11-13T22:57:46.594Z,2.72
2023-11-13T23:00:20.533Z,3.30
2023-11-13T23:02:50.407Z,2.65
2023-11-13T23:05:18.432Z,2.83
2023-11-13T23:07:48.268Z,2.80
2023-11-13T23:10:16.147Z,3.15
2023-11-13T23:12:46.699Z,3.15
2023-11-13T23:15:14.774Z,2.78
2023-11-13T23:17:42.679Z,3.28
2023-11-13T23:20:12.480Z,3.40
2023-11-13T23:22:40.488Z,3.00
2023-11-13T23:25:09.773Z,2.85
2023-11-13T23:27:38.737Z,2.35
2023-11-13T23:30:10.092Z,2.33
2023-11-13T23:32:38.162Z,2.38
2023-11-13T23:35:07.692Z,2.78
2023-11-13T23:37:35.620Z,2.63
2023-11-13T23:40:05.929Z,2.70
2023-11-13T23:42:34.336Z,3.78
2023-11-13T23:45:02.158Z,3.22
2023-11-13T23:47:35.612Z,2.55
2023-11-13T23:50:04.942Z,3.17
2023-11-13T23:52:32.902Z,4.00
2023-11-13T23:55:00.927Z,4.07
2023-11-13T23:57:29.236Z,4.40
2023-11-13T23:59:57.015Z,3.90
